Aeroporto :
LOGIN :

Iscrizione | Disclaimer

   EN    FR    IT 

 










Sommario :    VFR   VFR Marginale   IFR   IFR Intensivo   IFR Molto Intensivo
Visibilità : 
Base nubi : 
>= 8 km
>= 3000ft
5 / 8 km
1000 / 3000 ft
1500m / 5 km
500 / 1000 ft
800 / 1500m
200 / 500 ft
< 800m
< 200 ft
Simboli :   Temporali  Nebbia  Neve Forte  Precipitazioni Forti  Vento > 20 kt
SIGMETs :   Varie  Temporali  Ghiacco  Turbolenza  Onda orograficha  Ceneri Vulcaniche







- Altitudine del aeroporto : 39 ft
- Codice IATA : TRS


LIPQ - Friuli Venezia Giulia Apt. Trieste

ULTIMO METAR :
  • 241150Z 19008KT 9000 BKN050 19/16 Q1015

METARs OBSOLETI :
  • 241120Z 20008KT 160V220 9999 BKN050 19/16 Q1015
  • 241050Z 18008KT 150V210 9999 FEW035 BKN050 20/15 Q1015
  • 241020Z 15007KT 120V190 9999 FEW020 BKN045 19/15 Q1015
  • 240950Z 14008KT 9999 SCT040 BKN060 18/15 Q1015
  • 240920Z 15009KT 9999 SCT045 BKN060 18/15 Q1015

TAF TAF LIPQ
Valido dal 24 a 12 ore il 25 a 12 ore UTC


241100Z 2412/2512 19010KT 8000 SCT015 BKN050
BECMG 2418/2420 VRB05KT
TEMPO 2418/2421 4000 SHRA
Nessun NOTAM noto per questo aeroporto.
1 SIGMET conosciuto per la FIR Milano (LIMM) :
 
Temporali affogati
LIMM SIGMET 3 VALID 241125/241425 LIIP
LIMM MILANO FIR EMBD TS FCST WI N4446 E00653 - N4548 E00701 - N4607 E00839 - N4548 E00901 - N4616 E00918 - N4658 E01155 - N4636 E01258 - N4428 E01045 - N4351 E00728 - N4446 E00653 TOP FL380 MOV ENE NC=



MetMap, La meteo Aeronautica in un colpo d'occhio ! - Copyright ORBIFLY Dicembre 2007 - Disclaimer

ORBIFLY MET'MAP TEAM :

Programmazione e sviluppo : Alexandra Zaïnal
Concezione e sviluppo : Baudouin d'Aumeries
Co-Programmazione e sviluppo : Marc-Olivier Méhu
Supporto tecnico e logistico : Manuel Goepfert
Aiuto per la traduzione : Arnaldo La Scala

Contatto : metmap@orbifly.com




FONTI E CREDITI :

   NOAA